createdAt,value
2023-03-31T00:00:45.277Z,89.51
2023-03-31T00:01:45.270Z,89.92
2023-03-31T00:02:45.286Z,88.59
2023-03-31T00:03:45.427Z,89.42
2023-03-31T00:04:45.267Z,89.31
2023-03-31T00:05:45.214Z,88.70
2023-03-31T00:06:45.211Z,89.45
2023-03-31T00:07:45.191Z,90.37
2023-03-31T00:08:45.183Z,89.66
2023-03-31T00:09:45.174Z,89.97
2023-03-31T00:10:45.165Z,89.45
2023-03-31T00:11:45.165Z,90.48
2023-03-31T00:12:45.137Z,90.79
2023-03-31T00:13:45.125Z,90.69
2023-03-31T00:14:45.114Z,90.48
2023-03-31T00:15:45.108Z,90.79
2023-03-31T00:16:45.138Z,90.79
2023-03-31T00:17:45.141Z,90.48
2023-03-31T00:18:45.073Z,90.64
2023-03-31T00:19:45.065Z,90.23
2023-03-31T00:20:45.047Z,90.44
2023-03-31T00:21:45.064Z,90.75
2023-03-31T00:22:45.032Z,90.03
2023-03-31T00:23:45.018Z,88.70
2023-03-31T00:24:45.009Z,89.37
2023-03-31T00:25:45.001Z,89.06
2023-03-31T00:26:44.995Z,88.76
2023-03-31T00:27:44.984Z,88.65
2023-03-31T00:28:44.970Z,88.65
2023-03-31T00:29:44.963Z,88.96
2023-03-31T00:30:44.944Z,89.06
2023-03-31T00:31:45.055Z,88.56
2023-03-31T00:32:44.952Z,88.20
2023-03-31T00:33:44.912Z,88.71
2023-03-31T00:34:44.900Z,89.03
2023-03-31T00:35:44.923Z,88.82
2023-03-31T00:36:44.904Z,87.79
2023-03-31T00:37:44.872Z,87.29
2023-03-31T00:38:44.866Z,87.18
2023-03-31T00:39:44.856Z,87.96
2023-03-31T00:40:44.840Z,87.29
2023-03-31T00:41:44.826Z,87.24
2023-03-31T00:42:44.827Z,87.38
2023-03-31T00:43:44.804Z,88.10
2023-03-31T00:44:44.791Z,88.20
2023-03-31T00:45:44.804Z,88.41
2023-03-31T00:46:44.768Z,88.62
2023-03-31T00:47:44.822Z,88.51
2023-03-31T00:48:44.745Z,87.29
2023-03-31T00:49:44.739Z,86.63
2023-03-31T00:50:44.721Z,87.55
2023-03-31T00:51:44.720Z,87.38
2023-03-31T00:52:44.711Z,87.04
2023-03-31T00:53:44.697Z,87.49
2023-03-31T00:54:44.682Z,87.96
2023-03-31T00:55:44.672Z,88.47
2023-03-31T00:56:44.697Z,87.04
2023-03-31T00:57:44.668Z,86.94
2023-03-31T00:58:44.653Z,86.94
2023-03-31T00:59:44.662Z,86.22
2023-03-31T01:00:44.627Z,86.73
2023-03-31T01:01:44.701Z,87.35
2023-03-31T01:02:44.665Z,86.83
2023-03-31T01:03:44.672Z,86.43
2023-03-31T01:04:44.578Z,87.24
2023-03-31T01:05:44.567Z,87.55
2023-03-31T01:06:44.554Z,88.57
2023-03-31T01:07:44.563Z,87.38
2023-03-31T01:08:44.546Z,86.94
2023-03-31T01:09:44.530Z,87.24
2023-03-31T01:10:44.522Z,88.26
2023-03-31T01:11:44.510Z,88.51
2023-03-31T01:12:44.504Z,88.20
2023-03-31T01:13:44.490Z,88.10
2023-03-31T01:14:44.472Z,88.82
2023-03-31T01:15:44.472Z,89.03
2023-03-31T01:16:44.532Z,89.03
2023-03-31T01:17:44.635Z,88.41
2023-03-31T01:18:44.501Z,88.82
2023-03-31T01:19:44.420Z,88.82
2023-03-31T01:20:44.413Z,88.10
2023-03-31T01:21:44.402Z,88.41
2023-03-31T01:22:44.405Z,88.82
2023-03-31T01:23:44.389Z,88.92
2023-03-31T01:24:44.370Z,89.03
2023-03-31T01:25:44.359Z,88.20
2023-03-31T01:26:44.345Z,88.51
2023-03-31T01:27:44.344Z,88.10
2023-03-31T01:28:44.337Z,88.51
2023-03-31T01:29:44.318Z,88.51
2023-03-31T01:30:44.316Z,88.41
2023-03-31T01:31:44.334Z,89.03
2023-03-31T01:32:44.369Z,88.78
2023-03-31T01:33:44.268Z,89.12
2023-03-31T01:34:44.263Z,88.71
2023-03-31T01:35:44.287Z,88.41
2023-03-31T01:36:44.241Z,88.78
2023-03-31T01:37:44.238Z,88.82
2023-03-31T01:38:44.221Z,88.88
2023-03-31T01:39:44.207Z,89.03
2023-03-31T01:40:44.198Z,88.71
2023-03-31T01:41:44.186Z,88.57
2023-03-31T01:42:44.211Z,88.26
2023-03-31T01:43:44.166Z,88.98
2023-03-31T01:44:45.273Z,88.98
2023-03-31T01:45:45.264Z,88.06
2023-03-31T01:46:45.299Z,88.37
2023-03-31T01:47:45.317Z,88.47
2023-03-31T01:48:45.257Z,88.68
2023-03-31T01:49:45.227Z,88.71
2023-03-31T01:50:45.236Z,88.41
2023-03-31T01:51:45.237Z,88.57
2023-03-31T01:52:45.205Z,88.57
2023-03-31T01:53:45.185Z,88.17
2023-03-31T01:54:45.186Z,88.26
2023-03-31T01:55:45.171Z,88.57
2023-03-31T01:56:45.181Z,88.26
2023-03-31T01:57:45.158Z,88.06
2023-03-31T01:58:45.141Z,88.26
2023-03-31T01:59:45.123Z,88.68
2023-03-31T02:00:46.117Z,88.37
2023-03-31T02:01:45.149Z,88.78
2023-03-31T02:02:45.170Z,89.09
2023-03-31T02:03:45.154Z,89.09
2023-03-31T02:04:45.089Z,89.29
2023-03-31T02:05:45.070Z,89.29
2023-03-31T02:06:45.068Z,89.59
2023-03-31T02:07:45.063Z,89.59
2023-03-31T02:08:45.033Z,89.70
2023-03-31T02:09:45.019Z,90.25
2023-03-31T02:10:45.012Z,89.12
2023-03-31T02:11:45.003Z,88.98
2023-03-31T02:12:44.995Z,89.43
2023-03-31T02:13:44.991Z,89.39
2023-03-31T02:14:44.973Z,89.59
2023-03-31T02:15:44.971Z,89.84
2023-03-31T02:16:44.991Z,89.18
2023-03-31T02:17:44.965Z,90.41
2023-03-31T02:18:44.941Z,90.25
2023-03-31T02:19:44.927Z,90.41
2023-03-31T02:20:44.915Z,90.56
2023-03-31T02:21:44.902Z,89.53
2023-03-31T02:22:44.892Z,89.70
2023-03-31T02:23:44.890Z,90.41
2023-03-31T02:24:44.868Z,89.33
2023-03-31T02:25:44.858Z,90.52
2023-03-31T02:26:44.848Z,90.21
2023-03-31T02:27:44.834Z,90.41
2023-03-31T02:28:44.838Z,90.41
2023-03-31T02:29:44.818Z,90.62
2023-03-31T02:30:44.810Z,90.45
2023-03-31T02:31:44.843Z,90.56
2023-03-31T02:32:44.843Z,90.82
2023-03-31T02:33:44.790Z,90.82
2023-03-31T02:34:44.786Z,90.92
2023-03-31T02:35:44.794Z,90.82
2023-03-31T02:36:44.746Z,91.17
2023-03-31T02:37:44.737Z,91.13
2023-03-31T02:38:44.773Z,91.38
2023-03-31T02:39:44.719Z,90.92
2023-03-31T02:40:44.712Z,91.38
2023-03-31T02:41:44.697Z,90.92
2023-03-31T02:42:44.690Z,90.92
2023-03-31T02:43:44.687Z,91.03
2023-03-31T02:44:44.669Z,91.85
2023-03-31T02:45:44.669Z,91.85
2023-03-31T02:46:44.657Z,91.95
2023-03-31T02:47:44.710Z,92.30
2023-03-31T02:48:44.647Z,92.50
2023-03-31T02:49:44.619Z,91.99
2023-03-31T02:50:44.612Z,92.97
2023-03-31T02:51:44.609Z,92.60
2023-03-31T02:52:44.589Z,93.01
2023-03-31T02:53:44.595Z,93.12
2023-03-31T02:54:44.580Z,93.12
2023-03-31T02:55:44.561Z,92.71
2023-03-31T02:56:44.604Z,93.52
2023-03-31T02:57:44.546Z,93.52
2023-03-31T02:58:44.547Z,93.63
2023-03-31T02:59:44.531Z,93.52
2023-03-31T03:00:44.516Z,93.12
2023-03-31T03:01:44.584Z,93.52
2023-03-31T03:02:44.594Z,93.57
2023-03-31T03:03:44.500Z,93.77
2023-03-31T03:04:44.473Z,93.73
2023-03-31T03:05:44.470Z,94.59
2023-03-31T03:06:44.456Z,94.08
2023-03-31T03:07:44.441Z,95.10
2023-03-31T03:08:44.458Z,94.59
2023-03-31T03:09:44.431Z,94.90
2023-03-31T03:10:44.420Z,94.29
2023-03-31T03:11:44.406Z,94.70
2023-03-31T03:12:44.391Z,94.70
2023-03-31T03:13:44.385Z,95.00
2023-03-31T03:14:44.391Z,94.90
2023-03-31T03:15:44.365Z,95.00
2023-03-31T03:16:44.393Z,94.90
2023-03-31T03:17:44.399Z,94.90
2023-03-31T03:18:44.350Z,94.90
2023-03-31T03:19:44.333Z,94.70
2023-03-31T03:20:44.320Z,94.70
2023-03-31T03:21:44.307Z,95.10
2023-03-31T03:22:44.304Z,94.90
2023-03-31T03:23:44.288Z,94.95
2023-03-31T03:24:44.289Z,94.70
2023-03-31T03:25:44.270Z,94.90
2023-03-31T03:26:44.264Z,94.95
2023-03-31T03:27:44.248Z,94.70
2023-03-31T03:28:44.241Z,94.80
2023-03-31T03:29:44.237Z,94.80
2023-03-31T03:30:44.288Z,95.00
2023-03-31T03:31:44.204Z,94.90
2023-03-31T03:32:44.280Z,93.92
2023-03-31T03:33:44.197Z,94.95
2023-03-31T03:34:44.188Z,94.84
2023-03-31T03:35:44.264Z,94.18
2023-03-31T03:36:45.164Z,94.43
2023-03-31T03:37:44.145Z,94.95
2023-03-31T03:38:44.142Z,93.92
2023-03-31T03:39:44.139Z,93.92
2023-03-31T03:40:44.125Z,94.23
2023-03-31T03:41:44.106Z,94.84
2023-03-31T03:42:44.095Z,94.23
2023-03-31T03:43:44.104Z,94.64
2023-03-31T03:44:44.095Z,93.71
2023-03-31T03:45:44.062Z,94.74
2023-03-31T03:46:44.126Z,94.43
2023-03-31T03:47:44.074Z,94.54
2023-03-31T03:48:44.038Z,94.95
2023-03-31T03:49:44.052Z,94.33
2023-03-31T03:50:44.011Z,94.33
2023-03-31T03:51:44.009Z,95.25
2023-03-31T03:52:44.002Z,95.05
2023-03-31T03:53:43.980Z,94.23
2023-03-31T03:54:43.988Z,93.82
2023-03-31T03:55:43.964Z,94.23
2023-03-31T03:56:43.981Z,94.33
2023-03-31T03:57:44.939Z,93.92
2023-03-31T03:58:43.931Z,95.15
2023-03-31T03:59:43.957Z,94.02
2023-03-31T04:00:43.908Z,94.54
2023-03-31T04:01:43.935Z,94.33
2023-03-31T04:02:44.026Z,93.82
2023-03-31T04:03:43.885Z,94.02
2023-03-31T04:04:43.908Z,93.57
2023-03-31T04:05:43.860Z,93.82
2023-03-31T04:06:43.848Z,93.51
2023-03-31T04:07:43.836Z,94.54
2023-03-31T04:08:43.834Z,94.33
2023-03-31T04:09:43.831Z,93.62
2023-03-31T04:10:43.815Z,94.02
2023-03-31T04:11:43.804Z,93.98
2023-03-31T04:12:43.789Z,94.54
2023-03-31T04:13:43.774Z,94.54
2023-03-31T04:14:43.793Z,93.92
2023-03-31T04:15:43.758Z,94.33
2023-03-31T04:16:43.794Z,94.33
2023-03-31T04:17:43.795Z,94.23
2023-03-31T04:18:43.731Z,94.12
2023-03-31T04:19:43.729Z,94.54
2023-03-31T04:20:43.705Z,94.23
2023-03-31T04:21:43.699Z,94.02
2023-03-31T04:22:43.685Z,94.02
2023-03-31T04:23:43.677Z,94.02
2023-03-31T04:24:43.736Z,94.12
2023-03-31T04:25:43.661Z,93.82
2023-03-31T04:26:43.698Z,93.41
2023-03-31T04:27:43.648Z,93.92
2023-03-31T04:28:43.632Z,93.41
2023-03-31T04:29:43.615Z,93.71
2023-03-31T04:30:43.616Z,93.62
2023-03-31T04:31:43.661Z,93.41
2023-03-31T04:32:43.618Z,93.96
2023-03-31T04:33:43.572Z,93.96
2023-03-31T04:34:43.564Z,93.66
2023-03-31T04:35:43.564Z,93.35
2023-03-31T04:36:43.540Z,94.17
2023-03-31T04:37:43.530Z,94.07
2023-03-31T04:38:43.530Z,95.24
2023-03-31T04:39:43.502Z,94.83
2023-03-31T04:40:44.516Z,93.80
2023-03-31T04:41:43.505Z,94.42
2023-03-31T04:42:43.485Z,93.85
2023-03-31T04:43:43.498Z,93.64
2023-03-31T04:44:43.459Z,93.85
2023-03-31T04:45:43.484Z,93.64
2023-03-31T04:46:43.440Z,94.71
2023-03-31T04:47:43.486Z,94.56
2023-03-31T04:48:43.441Z,95.18
2023-03-31T04:49:43.413Z,95.12
2023-03-31T04:50:43.409Z,95.28
2023-03-31T04:51:43.392Z,94.67
2023-03-31T04:52:43.383Z,95.07
2023-03-31T04:53:43.394Z,95.59
2023-03-31T04:54:43.381Z,95.28
2023-03-31T04:55:43.856Z,95.18
2023-03-31T04:56:43.401Z,96.10
2023-03-31T04:57:43.334Z,96.31
2023-03-31T04:58:43.326Z,96.16
2023-03-31T04:59:43.350Z,96.62
2023-03-31T05:00:43.318Z,96.57
2023-03-31T05:01:43.420Z,96.47
2023-03-31T05:02:43.416Z,96.67
2023-03-31T05:03:43.285Z,95.75
2023-03-31T05:04:43.250Z,95.95
2023-03-31T05:05:44.271Z,96.06
2023-03-31T05:06:43.248Z,96.01
2023-03-31T05:07:43.325Z,95.50
2023-03-31T05:08:43.231Z,95.70
2023-03-31T05:09:43.224Z,95.25
2023-03-31T05:10:43.259Z,94.68
2023-03-31T05:11:43.198Z,94.89
2023-03-31T05:12:43.185Z,94.78
2023-03-31T05:13:43.187Z,94.99
2023-03-31T05:14:43.166Z,94.64
2023-03-31T05:15:43.165Z,94.68
2023-03-31T05:16:43.213Z,95.05
2023-03-31T05:17:43.154Z,95.15
2023-03-31T05:18:43.127Z,94.37
2023-03-31T05:19:43.122Z,94.23
2023-03-31T05:20:43.129Z,94.99
2023-03-31T05:21:43.104Z,95.09
2023-03-31T05:22:44.076Z,94.99
2023-03-31T05:23:44.087Z,95.09
2023-03-31T05:24:43.074Z,95.20
2023-03-31T05:25:43.083Z,94.95
2023-03-31T05:26:43.048Z,94.84
2023-03-31T05:27:43.043Z,94.78
2023-03-31T05:28:43.041Z,94.78
2023-03-31T05:29:43.017Z,94.84
2023-03-31T05:30:43.027Z,94.17
2023-03-31T05:31:43.072Z,94.58
2023-03-31T05:32:43.006Z,95.09
2023-03-31T05:33:42.980Z,95.29
2023-03-31T05:34:42.974Z,95.05
2023-03-31T05:35:42.984Z,94.95
2023-03-31T05:36:42.947Z,94.89
2023-03-31T05:37:42.936Z,95.05
2023-03-31T05:38:42.930Z,94.95
2023-03-31T05:39:42.944Z,95.05
2023-03-31T05:40:42.914Z,94.74
2023-03-31T05:41:42.899Z,94.23
2023-03-31T05:42:42.899Z,94.84
2023-03-31T05:43:42.886Z,94.95
2023-03-31T05:44:42.874Z,95.05
2023-03-31T05:45:42.869Z,94.74
2023-03-31T05:46:42.900Z,94.84
2023-03-31T05:47:42.904Z,95.36
2023-03-31T05:48:42.827Z,93.92
2023-03-31T05:49:42.817Z,94.12
2023-03-31T05:50:42.819Z,94.23
2023-03-31T05:51:42.794Z,94.02
2023-03-31T05:52:42.793Z,93.92
2023-03-31T05:53:42.784Z,93.47
2023-03-31T05:54:42.761Z,93.26
2023-03-31T05:55:42.768Z,93.71
2023-03-31T05:56:42.900Z,93.47
2023-03-31T05:57:42.738Z,93.88
2023-03-31T05:58:42.732Z,93.57
2023-03-31T05:59:42.727Z,93.26
2023-03-31T06:00:42.704Z,93.26
2023-03-31T06:01:43.744Z,92.55
2023-03-31T06:02:42.771Z,92.75
2023-03-31T06:03:42.787Z,92.44
2023-03-31T06:04:42.761Z,92.65
2023-03-31T06:05:45.090Z,92.65
2023-03-31T06:06:42.642Z,91.73
2023-03-31T06:07:42.628Z,92.50
2023-03-31T06:08:42.617Z,92.50
2023-03-31T06:09:42.616Z,92.03
2023-03-31T06:10:42.598Z,92.75
2023-03-31T06:11:42.596Z,92.85
2023-03-31T06:12:42.586Z,92.65
2023-03-31T06:13:42.564Z,92.24
2023-03-31T06:14:42.564Z,92.75
2023-03-31T06:15:42.594Z,92.44
2023-03-31T06:16:42.543Z,92.44
2023-03-31T06:17:42.553Z,92.03
2023-03-31T06:18:42.518Z,91.63
2023-03-31T06:19:42.521Z,92.14
2023-03-31T06:20:42.503Z,92.65
2023-03-31T06:21:42.529Z,92.55
2023-03-31T06:22:42.482Z,91.83
2023-03-31T06:23:42.467Z,92.85
2023-03-31T06:24:42.454Z,92.19
2023-03-31T06:25:50.916Z,91.69
2023-03-31T06:26:44.461Z,91.83
2023-03-31T06:27:42.422Z,91.27
2023-03-31T06:28:42.411Z,91.27
2023-03-31T06:29:42.400Z,91.48
2023-03-31T06:30:42.393Z,90.97
2023-03-31T06:31:42.405Z,91.27
2023-03-31T06:32:42.411Z,91.27
2023-03-31T06:33:42.372Z,91.38
2023-03-31T06:34:42.350Z,91.27
2023-03-31T06:35:42.369Z,91.48
2023-03-31T06:36:42.357Z,91.48
2023-03-31T06:37:42.317Z,91.89
2023-03-31T06:38:42.313Z,91.38
2023-03-31T06:39:42.307Z,92.19
2023-03-31T06:40:42.291Z,91.89
2023-03-31T06:41:42.289Z,91.27
2023-03-31T06:42:42.257Z,92.55
2023-03-31T06:43:43.270Z,92.81
2023-03-31T06:44:42.243Z,93.26
2023-03-31T06:45:42.243Z,92.55
2023-03-31T06:46:44.171Z,93.57
2023-03-31T06:47:42.268Z,93.37
2023-03-31T06:48:42.252Z,93.16
2023-03-31T06:49:42.206Z,93.57
2023-03-31T06:50:42.191Z,93.77
2023-03-31T06:51:42.204Z,93.98
2023-03-31T06:52:42.210Z,93.47
2023-03-31T06:53:42.255Z,92.96
2023-03-31T06:54:42.159Z,93.88
2023-03-31T06:55:42.150Z,93.88
2023-03-31T06:56:44.764Z,93.77
2023-03-31T06:57:42.752Z,94.29
2023-03-31T06:58:42.147Z,94.29
2023-03-31T06:59:43.054Z,94.84
2023-03-31T07:00:42.113Z,94.70
2023-03-31T07:01:42.152Z,95.00
2023-03-31T07:02:42.180Z,94.18
2023-03-31T07:03:42.143Z,95.10
2023-03-31T07:04:42.084Z,94.12
2023-03-31T07:05:42.054Z,93.92
2023-03-31T07:06:42.032Z,94.29
2023-03-31T07:07:43.271Z,94.54
2023-03-31T07:08:42.005Z,94.33
2023-03-31T07:09:41.988Z,93.92
2023-03-31T07:10:44.299Z,94.80
2023-03-31T07:11:42.028Z,94.74
2023-03-31T07:12:42.014Z,93.98
2023-03-31T07:13:41.997Z,94.74
2023-03-31T07:14:42.014Z,94.33
2023-03-31T07:15:41.961Z,94.95
2023-03-31T07:16:42.073Z,94.74
2023-03-31T07:17:42.128Z,95.15
2023-03-31T07:18:41.973Z,96.17
2023-03-31T07:19:41.979Z,96.07
2023-03-31T07:20:41.983Z,94.02
2023-03-31T07:21:41.989Z,95.15
2023-03-31T07:22:41.969Z,94.95
2023-03-31T07:23:41.929Z,94.95
2023-03-31T07:24:41.901Z,95.46
2023-03-31T07:25:41.900Z,94.95
2023-03-31T07:26:41.941Z,94.74
2023-03-31T07:27:41.883Z,95.41
2023-03-31T07:28:41.827Z,94.95
2023-03-31T07:29:41.818Z,94.84
2023-03-31T07:30:41.819Z,95.41
2023-03-31T07:31:41.829Z,95.72
2023-03-31T07:32:41.794Z,96.23
2023-03-31T07:33:41.769Z,94.74
2023-03-31T07:34:41.776Z,94.74
2023-03-31T07:35:41.812Z,94.49
2023-03-31T07:36:41.794Z,95.25
2023-03-31T07:37:41.706Z,95.31
2023-03-31T07:38:41.700Z,94.74
2023-03-31T07:39:41.691Z,94.39
2023-03-31T07:40:41.827Z,94.90
2023-03-31T07:41:41.674Z,95.10
2023-03-31T07:42:41.661Z,95.00
2023-03-31T07:43:41.707Z,95.10
2023-03-31T07:44:41.644Z,94.75
2023-03-31T07:45:42.715Z,96.08
2023-03-31T07:46:41.896Z,95.78
2023-03-31T07:47:41.631Z,94.96
2023-03-31T07:48:41.602Z,94.85
2023-03-31T07:49:41.611Z,95.06
2023-03-31T07:50:41.587Z,94.49
2023-03-31T07:51:41.586Z,94.65
2023-03-31T07:52:42.575Z,94.80
2023-03-31T07:53:41.555Z,94.59
2023-03-31T07:54:41.552Z,95.26
2023-03-31T07:55:41.531Z,95.57
2023-03-31T07:56:41.536Z,95.72
2023-03-31T07:57:41.554Z,94.85
2023-03-31T07:58:41.495Z,95.10
2023-03-31T07:59:41.485Z,95.41
2023-03-31T08:00:41.475Z,95.92
2023-03-31T08:01:41.501Z,96.03
2023-03-31T08:02:41.484Z,96.13
2023-03-31T08:03:42.510Z,96.23
2023-03-31T08:04:41.485Z,95.10
2023-03-31T08:05:41.430Z,95.21
2023-03-31T08:06:41.433Z,96.17
2023-03-31T08:07:41.406Z,95.62
2023-03-31T08:08:41.405Z,95.72
2023-03-31T08:09:41.386Z,96.13
2023-03-31T08:10:41.373Z,95.82
2023-03-31T08:11:41.368Z,95.62
2023-03-31T08:12:41.395Z,95.82
2023-03-31T08:13:41.341Z,95.92
2023-03-31T08:14:41.840Z,94.74
2023-03-31T08:15:42.333Z,94.33
2023-03-31T08:16:41.356Z,96.17
2023-03-31T08:17:41.327Z,95.87
2023-03-31T08:18:41.299Z,95.87
2023-03-31T08:19:41.281Z,95.92
2023-03-31T08:20:41.274Z,94.54
2023-03-31T08:21:41.270Z,94.12
2023-03-31T08:22:41.274Z,94.80
2023-03-31T08:23:41.256Z,93.92
2023-03-31T08:24:41.237Z,93.51
2023-03-31T08:25:41.227Z,92.18
2023-03-31T08:26:41.272Z,92.79
2023-03-31T08:27:41.234Z,94.02
2023-03-31T08:28:41.202Z,94.43
2023-03-31T08:29:41.197Z,93.71
2023-03-31T08:30:41.188Z,94.02
2023-03-31T08:31:41.216Z,94.37
2023-03-31T08:34:07.333Z,95.05
2023-03-31T08:35:07.336Z,94.43
2023-03-31T08:36:07.433Z,94.95
2023-03-31T08:37:07.317Z,93.71
2023-03-31T08:38:07.219Z,94.54
2023-03-31T08:39:07.179Z,93.71
2023-03-31T08:40:07.185Z,93.82
2023-03-31T08:41:07.158Z,93.30
2023-03-31T08:42:08.849Z,92.49
2023-03-31T08:43:07.142Z,92.12
2023-03-31T08:44:07.140Z,93.20
2023-03-31T08:46:45.207Z,93.92
2023-03-31T08:47:33.430Z,93.77
2023-03-31T08:48:33.392Z,93.67
2023-03-31T08:49:33.376Z,93.93
2023-03-31T08:50:33.364Z,94.14
2023-03-31T08:51:33.348Z,94.24
2023-03-31T08:52:33.354Z,94.29
2023-03-31T08:53:33.320Z,93.84
2023-03-31T08:54:33.311Z,94.04
2023-03-31T08:55:33.303Z,93.52
2023-03-31T08:56:33.294Z,93.12
2023-03-31T08:57:33.302Z,93.63
2023-03-31T08:58:33.271Z,92.81
2023-03-31T08:59:33.278Z,92.81
2023-03-31T09:00:33.250Z,92.60
2023-03-31T09:01:44.187Z,91.89
2023-03-31T09:02:34.422Z,90.86
2023-03-31T09:03:33.348Z,91.48
2023-03-31T09:04:33.211Z,91.78
2023-03-31T09:05:33.215Z,91.42
2023-03-31T09:06:33.200Z,91.27
2023-03-31T09:07:33.179Z,91.73
2023-03-31T09:08:33.161Z,91.93
2023-03-31T09:09:33.156Z,93.16
2023-03-31T09:10:33.147Z,92.55
2023-03-31T09:11:33.148Z,92.55
2023-03-31T09:12:34.698Z,93.57
2023-03-31T09:13:33.137Z,93.98
2023-03-31T09:14:33.104Z,93.57
2023-03-31T09:15:33.083Z,94.18
2023-03-31T09:16:33.134Z,94.14
2023-03-31T09:17:33.140Z,94.14
2023-03-31T09:18:33.069Z,93.99
2023-03-31T09:19:33.040Z,94.24
2023-03-31T09:20:33.065Z,93.89
2023-03-31T09:21:33.030Z,94.10
2023-03-31T09:22:33.031Z,92.97
2023-03-31T09:23:33.009Z,91.13
2023-03-31T09:24:33.216Z,91.78
2023-03-31T09:25:32.983Z,92.15
2023-03-31T09:26:32.976Z,92.97
2023-03-31T09:27:32.971Z,93.69
2023-03-31T09:28:32.953Z,93.59
2023-03-31T09:29:32.944Z,92.52
2023-03-31T09:30:32.933Z,92.93
2023-03-31T09:31:32.962Z,92.72
2023-03-31T09:32:32.965Z,92.99
2023-03-31T09:33:32.900Z,92.78
2023-03-31T09:34:32.890Z,92.58
2023-03-31T09:35:32.904Z,92.78
2023-03-31T09:36:32.872Z,92.02
2023-03-31T09:37:32.879Z,91.61
2023-03-31T09:38:32.848Z,93.00
2023-03-31T09:39:32.846Z,92.90
2023-03-31T09:40:32.825Z,90.75
2023-03-31T09:41:34.222Z,90.86
2023-03-31T09:42:32.814Z,91.53
2023-03-31T09:43:32.789Z,90.81
2023-03-31T09:44:32.781Z,92.35
2023-03-31T09:45:32.774Z,89.65
2023-03-31T09:46:33.043Z,90.26
2023-03-31T09:49:24.969Z,88.28
2023-03-31T09:49:58.739Z,86.24
2023-03-31T09:50:58.794Z,85.37
2023-03-31T09:51:58.766Z,85.98
2023-03-31T09:56:27.778Z,86.76
2023-03-31T09:58:27.717Z,84.14
2023-03-31T09:59:17.613Z,84.00
2023-03-31T10:00:17.586Z,90.28
2023-03-31T10:01:17.596Z,84.17
2023-03-31T10:02:17.578Z,82.80
2023-03-31T10:03:17.554Z,84.64
2023-03-31T10:04:17.574Z,81.48
2023-03-31T10:05:17.521Z,84.19
2023-03-31T10:06:17.521Z,88.85
2023-03-31T10:07:17.500Z,81.59
2023-03-31T10:08:17.530Z,78.85
2023-03-31T10:09:17.485Z,81.09
2023-03-31T10:10:17.477Z,77.22
2023-03-31T10:11:17.485Z,77.47
2023-03-31T10:12:17.458Z,77.97
2023-03-31T10:13:17.498Z,87.46
2023-03-31T10:14:17.450Z,79.35
2023-03-31T10:15:17.423Z,79.25
2023-03-31T10:16:17.424Z,77.76
2023-03-31T10:17:17.411Z,81.34
2023-03-31T10:18:17.435Z,79.92
2023-03-31T10:19:17.377Z,73.66
2023-03-31T10:20:17.380Z,78.60
2023-03-31T10:21:17.364Z,77.32
2023-03-31T10:22:17.351Z,76.34
2023-03-31T10:23:17.352Z,78.85
2023-03-31T10:24:17.336Z,77.26
2023-03-31T10:25:17.314Z,78.89
2023-03-31T10:26:17.312Z,81.02
2023-03-31T10:27:18.897Z,79.39
2023-03-31T10:28:17.307Z,80.21
2023-03-31T10:29:17.271Z,81.67
2023-03-31T10:30:17.262Z,81.71
2023-03-31T10:31:17.278Z,83.37
2023-03-31T10:32:17.262Z,81.85
2023-03-31T10:33:22.784Z,82.05
2023-03-31T10:34:18.235Z,81.65
2023-03-31T10:35:17.207Z,81.74
2023-03-31T10:36:17.305Z,82.26
2023-03-31T10:37:17.196Z,83.98
2023-03-31T10:38:17.184Z,84.29
2023-03-31T10:39:17.210Z,82.76
2023-03-31T10:40:17.222Z,83.17
2023-03-31T10:41:17.181Z,83.48
2023-03-31T10:42:17.136Z,84.19
2023-03-31T10:43:17.133Z,82.56
2023-03-31T10:44:17.126Z,83.78
2023-03-31T10:45:26.281Z,84.50
2023-03-31T10:46:18.113Z,83.74
2023-03-31T10:47:17.074Z,85.23
2023-03-31T10:48:17.066Z,85.76
2023-03-31T10:49:17.069Z,82.94
2023-03-31T10:50:17.085Z,84.77
2023-03-31T10:51:17.027Z,80.36
2023-03-31T10:52:17.020Z,80.66
2023-03-31T10:53:17.006Z,80.06
2023-03-31T10:54:17.009Z,79.85
2023-03-31T10:55:16.989Z,82.19
2023-03-31T10:56:16.977Z,85.13
2023-03-31T10:57:17.012Z,81.99
2023-03-31T10:58:16.960Z,80.77
2023-03-31T10:59:16.990Z,82.25
2023-03-31T11:00:16.960Z,79.82
2023-03-31T11:01:16.981Z,80.30
2023-03-31T11:02:16.920Z,79.49
2023-03-31T11:03:17.074Z,79.63
2023-03-31T11:04:16.905Z,80.47
2023-03-31T11:05:16.881Z,81.43
2023-03-31T11:06:16.868Z,83.26
2023-03-31T11:07:16.858Z,82.14
2023-03-31T11:08:18.681Z,83.56
2023-03-31T11:09:16.902Z,82.68
2023-03-31T11:10:16.837Z,83.70
2023-03-31T11:11:16.828Z,82.07
2023-03-31T11:12:16.801Z,82.38
2023-03-31T11:13:16.812Z,84.62
2023-03-31T11:14:16.800Z,84.01
2023-03-31T11:15:16.782Z,83.76
2023-03-31T11:16:16.912Z,83.20
2023-03-31T11:17:16.896Z,84.42
2023-03-31T11:18:16.739Z,84.66
2023-03-31T11:19:16.748Z,83.34
2023-03-31T11:20:16.790Z,84.97
2023-03-31T11:21:16.712Z,84.70
2023-03-31T11:22:16.701Z,84.56
2023-03-31T11:23:16.699Z,86.49
2023-03-31T11:24:16.692Z,85.78
2023-03-31T11:25:16.677Z,85.17
2023-03-31T11:26:16.671Z,85.21
2023-03-31T11:27:16.658Z,84.50
2023-03-31T11:28:16.653Z,85.11
2023-03-31T11:29:16.660Z,83.27
2023-03-31T11:30:16.623Z,82.73
2023-03-31T11:31:16.630Z,82.46
2023-03-31T11:32:16.632Z,83.78
2023-03-31T11:33:16.614Z,84.35
2023-03-31T11:34:16.605Z,84.25
2023-03-31T11:35:17.702Z,83.44
2023-03-31T11:36:17.820Z,83.70
2023-03-31T11:37:17.672Z,84.31
2023-03-31T11:38:17.664Z,82.10
2023-03-31T11:39:18.827Z,81.15
2023-03-31T11:40:17.651Z,79.08
2023-03-31T11:41:17.642Z,79.75
2023-03-31T11:42:17.621Z,79.21
2023-03-31T11:43:17.609Z,77.18
2023-03-31T11:44:17.609Z,77.86
2023-03-31T11:45:17.602Z,77.89
2023-03-31T11:46:17.618Z,78.60
2023-03-31T11:47:17.570Z,77.59
2023-03-31T11:48:17.589Z,76.61
2023-03-31T11:49:17.568Z,78.64
2023-03-31T11:50:17.548Z,78.84
2023-03-31T11:51:17.530Z,76.91
2023-03-31T11:52:17.516Z,79.08
2023-03-31T11:53:17.517Z,77.05
2023-03-31T11:54:17.514Z,79.14
2023-03-31T11:55:17.506Z,77.66
2023-03-31T11:56:17.578Z,77.66
2023-03-31T11:57:17.553Z,76.17
2023-03-31T11:58:17.474Z,75.90
2023-03-31T11:59:17.491Z,76.14
2023-03-31T12:00:17.442Z,76.48
2023-03-31T12:01:17.425Z,77.20
2023-03-31T12:02:17.426Z,79.68
2023-03-31T12:03:17.461Z,79.57
2023-03-31T12:04:17.466Z,79.77
2023-03-31T12:05:17.417Z,80.83
2023-03-31T12:06:17.650Z,80.11
2023-03-31T12:07:17.371Z,79.75
2023-03-31T12:08:17.381Z,81.54
2023-03-31T12:09:17.351Z,80.11
2023-03-31T12:10:24.274Z,81.48
2023-03-31T12:11:18.333Z,78.63
2023-03-31T12:12:17.322Z,79.54
2023-03-31T12:13:17.309Z,79.48
2023-03-31T12:14:17.317Z,79.68
2023-03-31T12:15:17.324Z,79.52
2023-03-31T12:16:17.354Z,80.94
2023-03-31T12:17:17.282Z,79.52
2023-03-31T12:18:17.270Z,81.56
2023-03-31T12:19:17.288Z,81.82
2023-03-31T12:20:17.269Z,82.13
2023-03-31T12:21:17.239Z,80.50
2023-03-31T12:22:17.218Z,80.33
2023-03-31T12:23:17.263Z,79.86
2023-03-31T12:24:17.206Z,80.47
2023-03-31T12:25:17.210Z,80.65
2023-03-31T12:26:17.180Z,81.26
2023-03-31T12:27:17.189Z,80.14
2023-03-31T12:28:17.162Z,81.77
2023-03-31T12:29:22.803Z,80.91
2023-03-31T12:30:19.858Z,79.90
2023-03-31T12:31:17.816Z,79.49
2023-03-31T12:32:17.124Z,81.73
2023-03-31T12:33:17.114Z,80.51
2023-03-31T12:34:17.108Z,80.91
2023-03-31T12:35:17.110Z,80.82
2023-03-31T12:36:17.165Z,81.23
2023-03-31T12:37:17.076Z,79.90
2023-03-31T12:38:17.119Z,81.12
2023-03-31T12:39:17.061Z,82.24
2023-03-31T12:40:17.091Z,80.75
2023-03-31T12:41:17.033Z,80.51
2023-03-31T12:42:17.031Z,80.14
2023-03-31T12:43:17.016Z,80.75
2023-03-31T12:44:17.002Z,81.05
2023-03-31T12:45:17.017Z,81.77
2023-03-31T12:46:17.067Z,79.73
2023-03-31T12:47:16.985Z,82.01
2023-03-31T12:48:16.965Z,82.22
2023-03-31T12:49:16.950Z,83.24
2023-03-31T12:50:16.952Z,82.56
2023-03-31T12:51:16.935Z,82.67
2023-03-31T12:52:16.922Z,82.46
2023-03-31T12:53:16.915Z,82.05
2023-03-31T12:54:16.904Z,82.15
2023-03-31T12:55:16.917Z,82.56
2023-03-31T12:56:16.900Z,81.74
2023-03-31T12:57:16.933Z,81.95
2023-03-31T12:58:16.864Z,82.46
2023-03-31T12:59:16.856Z,83.04
2023-03-31T13:00:16.857Z,81.91
2023-03-31T13:01:16.883Z,82.32